首页
METAR-TAF:

METAR-TAF

机场 :

Ulukhaktok, 西北特區, 加拿大

纬度: 70-46N, 经度: 117-48W, 海拔: 36米

当前天气观测

该预报发布于1小时和8分钟前的15:00 UTC
风速2节,风向多变
温度 15°C
湿度 67%
气压 1020 hPa
能見度: 24.1公里
多云层高于7200英尺
多云层高于19000英尺

METAR: CYHI 211500Z VRB02KT 15SM BKN072 BKN190 15/09 A3013 RMK AC5AC1 CIG RAG SLP207

时间: 10:08 (16:08 UTC)

预报

该预报发布于28分钟前的15:40 UTC
预报有效从21日的 16点(UTC)到 21日的 19点(UTC)
风速3节,风向多变
能見度: 10公里
多云层高于7000英尺
多云层高于15000英尺

TAF: CYHI 211540Z 2116/2119 VRB03KT P6SM BKN070 BKN150 RMK NXT FCST BY 221600Z

超过4000个机场的气象观测和天气预报(METAR&TAF报告)。

可查询的气象台以黄色和红色小点在地图上表示。

将鼠标移到小点上方,可查看气象台名称。

然后点击查看天气观测和预报。

如需切换地图:点击带黑十字的绿色按钮放大地图;点击带横线的绿色按钮缩小地图;或者点击绿色箭头查看邻近地区的地图。


METAR-TAF: